Time;durP1;ratioP1;P1;durP2;ratioP2;P2;SDS_P1;SDS_P2;PMS_P1;PMS_P2;Temp;Humidity;BMP_temperature;BMP_pressure;BME280_temperature;BME280_humidity;BME280_pressure;Samples;Min_cycle;Max_cycle;Signal;HPM_P1;HPM_P2
2021/10/18 00:01:12;;;;;;;21.17;10.40;;;;;;;5.30;100.00;100329.41;1708351;84;21047;-74
2021/10/18 00:03:39;;;;;;;22.37;10.00;;;;;;;5.30;100.00;100332.09;1774311;81;21505;-75
2021/10/18 00:06:07;;;;;;;22.17;10.60;;;;;;;5.32;100.00;100334.64;1774166;80;21034;-75
2021/10/18 00:08:34;;;;;;;25.90;11.10;;;;;;;5.31;100.00;100335.61;1774540;81;20999;-75
2021/10/18 00:11:02;;;;;;;21.23;10.47;;;;;;;5.29;100.00;100339.80;1774254;80;21039;-75
2021/10/18 00:13:29;;;;;;;20.20;10.90;;;;;;;5.29;100.00;100337.11;1708070;83;21086;-72
2021/10/18 00:15:58;;;;;;;21.87;11.17;;;;;;;5.29;100.00;100338.92;1774059;81;21054;-74
2021/10/18 00:18:25;;;;;;;20.47;10.30;;;;;;;5.28;100.00;100338.08;1774623;80;21505;-75
2021/10/18 00:20:54;;;;;;;19.80;10.10;;;;;;;5.29;100.00;100338.92;1708113;83;21091;-73
2021/10/18 00:23:20;;;;;;;20.13;10.50;;;;;;;5.30;100.00;100335.27;1711909;84;21031;-74
2021/10/18 00:25:47;;;;;;;21.70;10.70;;;;;;;5.32;100.00;100337.33;1774483;80;21070;-74
2021/10/18 00:28:16;;;;;;;21.57;11.03;;;;;;;5.35;100.00;100333.52;1774594;80;21473;-75
2021/10/18 00:30:43;;;;;;;21.23;10.43;;;;;;;5.36;100.00;100328.03;1774078;81;20987;-74
2021/10/18 00:33:11;;;;;;;25.23;10.30;;;;;;;5.38;100.00;100329.25;1774058;81;21030;-74
2021/10/18 00:35:38;;;;;;;19.67;10.57;;;;;;;5.42;100.00;100329.34;1687914;84;21039;-74
2021/10/18 00:38:05;;;;;;;20.27;10.50;;;;;;;5.46;100.00;100330.80;1763501;81;21019;-74
2021/10/18 00:40:32;;;;;;;23.23;12.23;;;;;;;5.51;100.00;100329.91;1748014;82;21035;-74
2021/10/18 00:42:58;;;;;;;21.37;11.00;;;;;;;5.58;100.00;100323.51;1692676;85;21055;-74
2021/10/18 00:45:25;;;;;;;19.37;10.60;;;;;;;5.63;100.00;100332.89;1766813;81;21003;-74
2021/10/18 00:47:52;;;;;;;18.90;10.30;;;;;;;5.70;100.00;100335.40;1769934;80;21015;-75
2021/10/18 00:50:18;;;;;;;19.30;10.27;;;;;;;5.78;100.00;100331.20;1768891;81;21019;-74
2021/10/18 00:52:45;;;;;;;21.37;10.23;;;;;;;5.84;100.00;100333.34;1705705;84;21026;-74
2021/10/18 00:55:12;;;;;;;20.90;10.30;;;;;;;5.89;100.00;100326.58;1769151;81;21062;-75
2021/10/18 00:57:38;;;;;;;21.13;10.53;;;;;;;5.94;100.00;100327.53;1777032;81;21011;-73
2021/10/18 01:00:08;;;;;;;18.77;9.63;;;;;;;5.99;100.00;100329.86;1705584;83;21139;-75
2021/10/18 01:02:34;;;;;;;19.27;9.73;;;;;;;6.03;100.00;100328.59;1703975;84;21007;-74
2021/10/18 01:05:01;;;;;;;17.47;9.17;;;;;;;6.07;100.00;100321.95;1705673;83;21035;-73
2021/10/18 01:07:28;;;;;;;21.33;9.27;;;;;;;6.10;100.00;100317.67;1685885;84;21007;-75
2021/10/18 01:09:54;;;;;;;16.33;9.20;;;;;;;6.13;100.00;100317.91;1769932;80;21465;-75
2021/10/18 01:12:21;;;;;;;17.50;9.20;;;;;;;6.15;100.00;100319.96;1768881;81;21109;-75
2021/10/18 01:14:48;;;;;;;18.63;9.60;;;;;;;6.15;100.00;100315.94;1705775;84;21063;-75
2021/10/18 01:17:15;;;;;;;17.63;8.77;;;;;;;6.15;100.00;100315.94;1745725;81;21003;-75
2021/10/18 01:19:41;;;;;;;15.83;8.73;;;;;;;6.15;100.00;100314.59;1776647;81;20999;-75
2021/10/18 01:22:08;;;;;;;18.00;8.87;;;;;;;6.14;100.00;100318.25;1776853;80;20995;-74
2021/10/18 01:24:35;;;;;;;18.63;8.67;;;;;;;6.13;100.00;100317.91;1706377;83;21544;-75
2021/10/18 01:27:03;;;;;;;19.33;9.07;;;;;;;6.11;100.00;100322.06;1768829;81;21035;-75
2021/10/18 01:29:36;;;;;;;16.20;8.47;;;;;;;6.07;100.00;100313.44;1776642;81;21063;-75
2021/10/18 01:32:04;;;;;;;20.12;9.03;;;;;;;6.03;100.00;100321.38;1668809;84;21598;-76
2021/10/18 01:34:32;;;;;;;17.00;8.80;;;;;;;5.97;100.00;100322.44;1666133;84;21081;-74
2021/10/18 01:37:00;;;;;;;16.40;8.23;;;;;;;5.92;100.00;100321.95;1672346;86;21017;-75
2021/10/18 01:39:27;;;;;;;15.87;8.00;;;;;;;5.87;100.00;100319.16;1666144;86;21035;-75
2021/10/18 01:41:53;;;;;;;18.17;8.97;;;;;;;5.84;100.00;100318.11;1666332;86;21026;-75
2021/10/18 01:44:20;;;;;;;17.77;8.67;;;;;;;5.80;100.00;100322.02;1684835;84;21066;-75
2021/10/18 01:46:47;;;;;;;17.10;9.20;;;;;;;5.78;100.00;100321.81;1679236;85;20979;-76
2021/10/18 01:49:15;;;;;;;17.23;8.40;;;;;;;5.76;100.00;100330.48;1706930;84;21083;-75
2021/10/18 01:51:42;;;;;;;16.80;8.50;;;;;;;5.73;100.00;100325.37;1685030;85;21485;-75
2021/10/18 01:54:09;;;;;;;18.47;8.67;;;;;;;5.72;100.00;100327.22;1700074;83;21136;-75
2021/10/18 01:56:37;;;;;;;16.97;8.30;;;;;;;5.71;100.00;100330.88;1707596;84;21030;-75
2021/10/18 01:59:04;;;;;;;17.13;8.47;;;;;;;5.69;100.00;100336.37;1732698;83;21089;-74
2021/10/18 02:01:30;;;;;;;16.57;8.00;;;;;;;5.67;100.00;100338.34;1733168;83;20994;-74
2021/10/18 02:03:57;;;;;;;16.17;8.57;;;;;;;5.65;100.00;100333.60;1733154;83;21033;-74
2021/10/18 02:06:24;;;;;;;16.40;8.83;;;;;;;5.61;100.00;100336.20;1698449;83;21058;-75
2021/10/18 02:08:50;;;;;;;17.50;8.37;;;;;;;5.60;100.00;100339.01;1694809;85;21075;-75
2021/10/18 02:11:17;;;;;;;17.07;8.27;;;;;;;5.57;100.00;100344.12;1694847;85;21050;-74
2021/10/18 02:13:45;;;;;;;17.50;8.87;;;;;;;5.54;100.00;100339.52;1694534;85;21019;-75
2021/10/18 02:16:12;;;;;;;18.20;8.60;;;;;;;5.50;100.00;100339.77;1683609;85;21116;-75
2021/10/18 02:18:38;;;;;;;15.07;8.47;;;;;;;5.46;100.00;100339.68;1714338;82;21035;-73
2021/10/18 02:21:05;;;;;;;16.27;8.50;;;;;;;5.42;100.00;100340.94;1695192;85;20987;-75
2021/10/18 02:23:32;;;;;;;17.30;8.87;;;;;;;5.40;100.00;100342.03;1695185;85;21150;-75
2021/10/18 02:25:59;;;;;;;17.93;7.60;;;;;;;5.36;100.00;100340.59;1694836;85;21070;-74
2021/10/18 02:28:26;;;;;;;15.93;7.80;;;;;;;5.31;100.00;100342.31;1714435;82;20986;-74
2021/10/18 02:30:53;;;;;;;16.37;8.60;;;;;;;5.27;100.00;100345.75;1747330;82;21014;-75
2021/10/18 02:33:21;;;;;;;18.70;8.80;;;;;;;5.22;100.00;100339.92;1747087;82;20978;-74
2021/10/18 02:35:48;;;;;;;19.33;8.67;;;;;;;5.17;100.00;100341.30;1746603;82;21005;-74
2021/10/18 02:38:14;;;;;;;19.97;8.27;;;;;;;5.09;100.00;100341.95;1748756;82;20999;-75
2021/10/18 02:40:41;;;;;;;19.07;8.57;;;;;;;5.03;100.00;100343.31;1692979;85;21026;-76
2021/10/18 02:43:07;;;;;;;21.20;9.87;;;;;;;4.99;100.00;100344.53;1752612;82;21019;-74
2021/10/18 02:45:34;;;;;;;19.63;10.83;;;;;;;4.93;100.00;100351.25;1752185;82;20979;-76
2021/10/18 02:48:01;;;;;;;21.20;10.07;;;;;;;4.88;100.00;100353.46;1752459;82;21019;-75
2021/10/18 02:50:29;;;;;;;18.17;9.40;;;;;;;4.84;100.00;100352.52;1752799;81;21010;-75
2021/10/18 02:52:59;;;;;;;21.53;9.17;;;;;;;4.77;100.00;100354.84;1692570;85;21095;-75
2021/10/18 02:55:25;;;;;;;19.47;8.90;;;;;;;4.72;100.00;100355.21;1739741;81;21028;-73
2021/10/18 02:57:52;;;;;;;17.77;8.60;;;;;;;4.68;100.00;100354.27;1738400;83;21513;-74
2021/10/18 03:00:19;;;;;;;18.13;9.00;;;;;;;4.64;100.00;100352.33;1738816;83;21023;-74
2021/10/18 03:02:46;;;;;;;18.90;9.33;;;;;;;4.62;100.00;100356.09;1738938;82;21055;-76
2021/10/18 03:05:12;;;;;;;18.90;9.43;;;;;;;4.56;100.00;100353.43;1738970;83;21080;-74
2021/10/18 03:07:41;;;;;;;21.57;10.20;;;;;;;4.53;100.00;100363.91;1738704;82;21075;-75
2021/10/18 03:10:08;;;;;;;17.93;9.70;;;;;;;4.48;100.00;100359.88;1739027;82;21041;-75
2021/10/18 03:12:37;;;;;;;19.83;9.27;;;;;;;4.44;100.00;100369.99;1738677;82;21055;-75
2021/10/18 03:15:05;;;;;;;19.23;9.10;;;;;;;4.41;100.00;100364.91;1739075;82;20988;-74
2021/10/18 03:17:32;;;;;;;21.17;9.30;;;;;;;4.39;100.00;100366.83;1739123;82;21540;-74
2021/10/18 03:19:58;;;;;;;19.33;9.13;;;;;;;4.36;100.00;100367.94;1738900;83;21521;-75
2021/10/18 03:22:25;;;;;;;18.83;9.03;;;;;;;4.34;100.00;100370.39;1677432;86;21525;-75
2021/10/18 03:24:52;;;;;;;17.93;8.90;;;;;;;4.31;100.00;100373.30;1739006;82;21067;-75
2021/10/18 03:27:20;;;;;;;16.50;8.27;;;;;;;4.28;100.00;100373.54;1677813;86;21525;-75
2021/10/18 03:29:48;;;;;;;17.27;8.77;;;;;;;4.27;100.00;100371.36;1681578;85;21016;-75
2021/10/18 03:32:14;;;;;;;16.33;8.47;;;;;;;4.26;100.00;100376.34;1706112;84;21071;-75
2021/10/18 03:34:41;;;;;;;15.10;8.20;;;;;;;4.25;100.00;100371.97;1705713;84;21091;-74
2021/10/18 03:37:08;;;;;;;19.07;8.70;;;;;;;4.24;100.00;100370.26;1706267;84;21000;-76
2021/10/18 03:39:35;;;;;;;18.00;8.77;;;;;;;4.21;100.00;100366.48;1683788;84;21060;-75
2021/10/18 03:42:03;;;;;;;16.70;8.57;;;;;;;4.19;100.00;100365.26;1752273;81;21033;-76
2021/10/18 03:44:30;;;;;;;17.37;8.20;;;;;;;4.20;100.00;100367.47;1761709;81;21007;-75
2021/10/18 03:46:57;;;;;;;16.73;8.50;;;;;;;4.19;100.00;100363.08;1739555;82;21082;-75
2021/10/18 03:49:24;;;;;;;14.87;8.03;;;;;;;4.19;100.00;100365.75;1774213;80;21062;-73
2021/10/18 03:51:51;;;;;;;15.27;8.07;;;;;;;4.17;100.00;100365.87;1739526;82;21039;-76
2021/10/18 03:54:17;;;;;;;20.03;8.73;;;;;;;4.15;100.00;100362.97;1773760;80;21023;-76
2021/10/18 03:56:44;;;;;;;17.70;7.87;;;;;;;4.15;100.00;100368.31;1739750;82;21062;-75
2021/10/18 03:59:11;;;;;;;16.30;7.93;;;;;;;4.14;100.00;100369.28;1773955;81;21015;-76
2021/10/18 04:01:38;;;;;;;16.47;7.67;;;;;;;4.14;100.00;100368.81;1739476;82;21027;-74
2021/10/18 04:04:04;;;;;;;15.90;8.10;;;;;;;4.13;100.00;100366.26;1773704;81;21042;-75
2021/10/18 04:06:31;;;;;;;17.60;7.93;;;;;;;4.12;100.00;100370.73;1739111;82;21410;-74
2021/10/18 04:08:58;;;;;;;17.67;7.67;;;;;;;4.12;100.00;100373.41;1773872;80;21470;-75
2021/10/18 04:11:25;;;;;;;15.47;7.87;;;;;;;4.12;100.00;100378.77;1739503;82;21106;-76
2021/10/18 04:13:54;;;;;;;16.00;7.70;;;;;;;4.14;100.00;100378.64;1774323;80;21085;-75
2021/10/18 04:16:22;;;;;;;17.17;7.63;;;;;;;4.14;100.00;100373.30;1739075;82;21098;-74
2021/10/18 04:18:50;;;;;;;18.63;8.73;;;;;;;4.14;100.00;100378.64;1773746;81;21059;-74
2021/10/18 04:21:17;;;;;;;18.00;7.70;;;;;;;4.14;100.00;100382.66;1739413;82;21071;-75
2021/10/18 04:23:43;;;;;;;17.40;7.50;;;;;;;4.14;100.00;100384.00;1773777;80;20987;-74
2021/10/18 04:26:10;;;;;;;23.33;8.43;;;;;;;4.16;100.00;100384.27;1739130;82;21376;-74
2021/10/18 04:28:37;;;;;;;23.80;8.17;;;;;;;4.20;100.00;100386.20;1773483;81;21000;-73
2021/10/18 04:31:04;;;;;;;24.30;9.10;;;;;;;4.23;100.00;100391.79;1739094;82;21079;-75
2021/10/18 04:33:31;;;;;;;19.63;8.53;;;;;;;4.26;100.00;100391.55;1773933;80;21039;-76
2021/10/18 04:35:57;;;;;;;17.87;8.03;;;;;;;4.30;100.00;100395.68;1739367;82;21024;-75
2021/10/18 04:38:24;;;;;;;141.60;97.67;;;;;;;4.34;100.00;100397.16;1773731;80;21022;-75
2021/10/18 04:40:51;;;;;;;38.27;23.83;;;;;;;4.38;100.00;100398.11;1773589;81;21074;-75
2021/10/18 04:43:17;;;;;;;38.53;32.10;;;;;;;4.43;100.00;100403.11;1749708;81;21023;-75
2021/10/18 04:45:44;;;;;;;58.90;46.00;;;;;;;4.48;100.00;100406.74;1773519;81;21195;-75
2021/10/18 04:48:11;;;;;;;69.93;51.70;;;;;;;4.50;100.00;100400.31;1773601;81;21023;-74
2021/10/18 04:50:38;;;;;;;175.47;122.30;;;;;;;4.53;100.00;100404.09;1773445;81;21066;-74
2021/10/18 04:53:04;;;;;;;113.17;75.77;;;;;;;4.56;100.00;100404.31;1773546;81;21027;-75
2021/10/18 04:55:31;;;;;;;81.83;55.90;;;;;;;4.59;100.00;100410.77;1770193;81;21043;-74
2021/10/18 04:58:00;;;;;;;42.37;33.53;;;;;;;4.61;100.00;100406.14;1773211;81;21058;-75
2021/10/18 05:00:29;;;;;;;28.30;19.97;;;;;;;4.62;100.00;100407.86;1759638;81;21015;-74
2021/10/18 05:02:56;;;;;;;24.87;18.10;;;;;;;4.62;100.00;100411.88;1768971;81;21544;-74
2021/10/18 05:05:23;;;;;;;23.37;13.27;;;;;;;4.62;100.00;100414.55;1774530;79;21034;-75
2021/10/18 05:08:05;;;;;;;25.80;14.47;;;;;;;4.63;100.00;100409.54;1807682;79;21521;-75
2021/10/18 05:10:34;;;;;;;28.65;20.45;;;;;;;4.66;100.00;100417.83;1807730;79;21070;-75
2021/10/18 05:13:01;;;;;;;84.83;58.77;;;;;;;4.69;100.00;100422.92;1807884;79;21007;-77
2021/10/18 05:15:28;;;;;;;122.13;73.20;;;;;;;4.71;100.00;100426.32;1807804;79;21020;-75
2021/10/18 05:17:55;;;;;;;25.83;15.77;;;;;;;4.73;100.00;100423.90;1807761;79;21058;-77
2021/10/18 05:20:22;;;;;;;48.03;32.23;;;;;;;4.76;100.00;100426.80;1808073;79;20991;-77
2021/10/18 05:22:48;;;;;;;40.60;25.20;;;;;;;4.81;100.00;100424.61;1808143;79;20968;-77
2021/10/18 05:25:15;;;;;;;293.87;210.70;;;;;;;4.89;100.00;100426.69;1807912;78;21070;-78
2021/10/18 05:27:42;;;;;;;101.37;70.20;;;;;;;4.97;100.00;100432.75;1807900;79;21117;-76
2021/10/18 05:30:10;;;;;;;98.13;67.57;;;;;;;5.04;100.00;100431.27;1807242;79;21077;-76
2021/10/18 05:32:37;;;;;;;135.53;77.70;;;;;;;5.12;100.00;100429.66;1761297;79;20956;-76
2021/10/18 05:35:07;;;;;;;54.20;28.00;;;;;;;5.22;100.00;100428.39;1759076;81;21014;-76
2021/10/18 05:37:37;;;;;;;51.70;25.77;;;;;;;5.32;100.00;100425.81;1761756;81;21061;-78
2021/10/18 05:40:06;;;;;;;142.50;83.90;;;;;;;5.41;100.00;100423.70;1704645;83;21102;-76
2021/10/18 05:42:34;;;;;;;59.83;25.83;;;;;;;5.53;100.00;100422.33;1703807;84;21481;-78
2021/10/18 05:45:00;;;;;;;60.53;24.37;;;;;;;5.64;100.00;100419.08;1714617;83;21042;-77
2021/10/18 05:47:27;;;;;;;81.70;37.97;;;;;;;5.74;100.00;100419.16;1713898;83;20987;-76
2021/10/18 05:49:54;;;;;;;67.90;30.33;;;;;;;5.84;100.00;100423.23;1712479;83;21050;-76
2021/10/18 05:52:22;;;;;;;71.70;21.30;;;;;;;5.95;100.00;100425.88;1715585;83;21011;-79
2021/10/18 05:54:55;;;;;;;73.73;44.63;;;;;;;6.04;100.00;100423.77;1717153;83;21006;-78
2021/10/18 05:57:22;;;;;;;81.87;58.73;;;;;;;6.15;100.00;100424.67;1715467;83;20967;-79
2021/10/18 05:59:49;;;;;;;49.83;34.10;;;;;;;6.26;100.00;100427.27;1715526;83;21482;-75
2021/10/18 06:02:15;;;;;;;36.13;26.07;;;;;;;6.37;100.00;100420.45;1705039;83;21009;-76
2021/10/18 06:04:47;;;;;;;24.27;12.70;;;;;;;6.51;100.00;100427.30;1721483;83;21098;-83
2021/10/18 06:07:14;;;;;;;21.20;12.17;;;;;;;6.67;100.00;100424.11;1722841;83;21144;-78
2021/10/18 06:09:40;;;;;;;20.90;10.70;;;;;;;6.86;100.00;100425.17;1729656;83;21073;-75
2021/10/18 06:12:07;;;;;;;20.53;9.30;;;;;;;7.07;100.00;100422.38;1729593;83;21034;-78
2021/10/18 06:14:35;;;;;;;15.37;8.13;;;;;;;7.27;100.00;100424.09;1729238;83;21046;-77
2021/10/18 06:17:03;;;;;;;16.83;8.33;;;;;;;7.48;100.00;100431.19;1729338;83;21245;-76
2021/10/18 06:19:30;;;;;;;19.27;8.47;;;;;;;7.67;100.00;100426.31;1729057;83;21030;-76
2021/10/18 06:21:57;;;;;;;17.70;8.17;;;;;;;7.87;100.00;100423.93;1728938;83;21089;-78
2021/10/18 06:24:23;;;;;;;22.57;9.20;;;;;;;8.07;100.00;100433.31;1722912;83;21054;-77
2021/10/18 06:26:50;;;;;;;21.67;8.80;;;;;;;8.23;100.00;100430.02;1718320;83;21091;-74
2021/10/18 06:29:17;;;;;;;17.83;8.40;;;;;;;8.37;100.00;100420.11;1719962;83;21032;-74
2021/10/18 06:31:45;;;;;;;18.17;8.20;;;;;;;8.49;100.00;100420.31;1720231;83;21135;-72
2021/10/18 06:34:12;;;;;;;30.37;10.30;;;;;;;8.60;100.00;100415.22;1719548;83;21051;-71
2021/10/18 06:36:40;;;;;;;30.43;10.27;;;;;;;8.71;100.00;100423.13;1745427;81;21453;-73
2021/10/18 06:39:07;;;;;;;24.53;14.00;;;;;;;8.78;100.00;100419.31;1792096;80;20990;-73
2021/10/18 06:41:34;;;;;;;20.77;10.17;;;;;;;8.84;100.00;100423.28;1794995;80;21015;-73
2021/10/18 06:44:13;;;;;;;75.17;46.87;;;;;;;8.87;100.00;100416.21;1792778;80;21499;-74
2021/10/18 06:46:43;;;;;;;134.70;85.20;;;;;;;8.92;100.00;100413.91;1659034;86;21131;-74
2021/10/18 06:49:10;;;;;;;35.47;24.27;;;;;;;8.99;100.00;100412.31;1641534;86;21562;-73
2021/10/18 06:51:45;;;;;;;26.57;12.27;;;;;;;9.04;100.00;100414.05;1654522;86;21547;-72
2021/10/18 06:54:05;;;;;;;16.37;7.97;;;;;;;9.13;100.00;100406.90;1653539;86;21495;-72
2021/10/18 06:56:32;;;;;;;16.77;8.30;;;;;;;9.26;100.00;100411.91;1616857;88;21023;-73
2021/10/18 06:58:59;;;;;;;23.43;13.40;;;;;;;9.32;100.00;100407.27;1598173;88;20999;-76
2021/10/18 07:01:26;;;;;;;21.80;10.40;;;;;;;9.41;100.00;100410.37;1600805;89;21072;-73
2021/10/18 07:03:53;;;;;;;19.03;8.90;;;;;;;9.52;100.00;100403.06;1600688;90;21097;-74
2021/10/18 07:06:19;;;;;;;16.67;7.50;;;;;;;9.63;100.00;100404.16;1602290;89;21063;-75
2021/10/18 07:08:47;;;;;;;19.30;9.47;;;;;;;9.64;100.00;100404.52;1602216;90;21066;-74
2021/10/18 07:11:14;;;;;;;22.47;7.77;;;;;;;9.65;100.00;100414.29;1602450;90;21077;-73
2021/10/18 07:13:42;;;;;;;24.97;13.10;;;;;;;9.66;100.00;100404.69;1602389;90;21063;-73
2021/10/18 07:16:09;;;;;;;21.33;11.10;;;;;;;9.63;100.00;100400.97;1598684;89;21058;-73
2021/10/18 07:18:35;;;;;;;17.77;9.40;;;;;;;9.67;100.00;100402.34;1602247;89;21054;-72
2021/10/18 07:21:02;;;;;;;16.87;7.30;;;;;;;9.77;100.00;100398.19;1601846;89;21023;-74
2021/10/18 07:23:30;;;;;;;19.77;7.80;;;;;;;9.89;100.00;100401.49;1600326;89;21059;-76
2021/10/18 07:26:01;;;;;;;19.80;8.35;;;;;;;10.02;100.00;100406.47;1600805;89;21031;-73
2021/10/18 07:28:27;;;;;;;18.27;7.33;;;;;;;10.13;100.00;100399.95;1602841;89;21084;-73
2021/10/18 07:30:55;;;;;;;20.25;8.25;;;;;;;10.21;100.00;100390.55;1602952;89;21102;-74
2021/10/18 07:33:23;;;;;;;24.65;6.97;;;;;;;10.25;100.00;100399.55;1597174;90;21540;-74
2021/10/18 07:35:51;;;;;;;15.68;8.28;;;;;;;10.26;100.00;100396.33;1600596;89;21096;-70
2021/10/18 07:38:23;;;;;;;17.40;8.03;;;;;;;10.28;100.00;100394.82;1600979;89;21000;-72
2021/10/18 07:40:46;;;;;;;15.23;7.62;;;;;;;10.27;100.00;100392.63;1595698;89;21068;-74
2021/10/18 07:43:14;;;;;;;16.57;7.28;;;;;;;10.35;100.00;100388.63;1600769;89;21090;-74
2021/10/18 07:45:41;;;;;;;16.90;7.05;;;;;;;10.45;100.00;100388.53;1593150;90;21062;-75
2021/10/18 07:48:08;;;;;;;13.72;6.70;;;;;;;10.55;100.00;100387.91;1602128;89;21032;-74
2021/10/18 07:50:35;;;;;;;14.68;6.90;;;;;;;10.59;100.00;100388.42;1618256;87;21607;-78
2021/10/18 07:53:03;;;;;;;14.78;6.65;;;;;;;10.64;100.00;100392.33;1689053;84;21050;-73
2021/10/18 07:55:34;;;;;;;16.52;6.87;;;;;;;10.70;100.00;100388.12;1718845;80;21019;-73
2021/10/18 07:57:59;;;;;;;16.00;7.42;;;;;;;10.75;100.00;100379.52;1766235;80;20964;-78
2021/10/18 08:00:26;;;;;;;16.30;7.08;;;;;;;10.77;100.00;100382.39;1764714;81;20991;-81
2021/10/18 08:02:55;;;;;;;14.53;7.05;;;;;;;10.82;100.00;100385.97;1772343;80;21016;-79
2021/10/18 08:05:23;;;;;;;13.45;5.80;;;;;;;10.90;100.00;100388.68;1775685;80;20955;-87
2021/10/18 08:07:52;;;;;;;13.53;6.08;;;;;;;10.98;100.00;100382.47;1774481;80;21480;-78
2021/10/18 08:10:23;;;;;;;15.58;6.42;;;;;;;11.02;100.00;100384.66;1763495;81;21046;-78
2021/10/18 08:12:57;;;;;;;13.80;6.58;;;;;;;11.03;100.00;100378.76;1773418;80;21528;-79
2021/10/18 08:15:25;;;;;;;12.28;5.75;;;;;;;11.08;100.00;100375.54;1724517;82;21057;-79
2021/10/18 08:17:54;;;;;;;13.72;6.40;;;;;;;11.14;100.00;100373.02;1723715;82;21563;-78
2021/10/18 08:20:20;;;;;;;21.25;10.68;;;;;;;11.15;100.00;100371.16;1729619;82;20962;-77
2021/10/18 08:22:49;;;;;;;41.53;27.58;;;;;;;11.22;100.00;100383.00;1713374;82;21077;-77
2021/10/18 08:25:16;;;;;;;28.32;13.55;;;;;;;11.27;100.00;100375.23;1716065;82;21042;-77
2021/10/18 08:27:44;;;;;;;26.77;17.20;;;;;;;11.27;100.00;100370.33;1726738;82;21021;-78
2021/10/18 08:30:12;;;;;;;24.75;11.93;;;;;;;11.25;100.00;100369.14;1720263;82;21097;-82
2021/10/18 08:32:40;;;;;;;14.93;6.90;;;;;;;11.24;100.00;100368.79;1715671;82;21049;-81
2021/10/18 08:35:10;;;;;;;17.67;6.20;;;;;;;11.37;100.00;100366.96;1733215;82;21033;-81
2021/10/18 08:40:41;;;;;;;22.50;8.75;;;;;;;11.98;100.00;100373.39;1731913;82;21033;-82
2021/10/18 08:45:44;;;;;;;21.25;9.88;;;;;;;12.50;100.00;100362.03;1709031;83;21086;-83
2021/10/18 08:48:12;;;;;;;24.27;12.30;;;;;;;12.89;100.00;100358.45;1719581;83;20987;-80
2021/10/18 08:50:39;;;;;;;24.82;12.47;;;;;;;13.01;100.00;100354.83;1711448;83;21126;-79
2021/10/18 08:53:06;;;;;;;29.35;13.68;;;;;;;12.86;100.00;100358.31;1721823;83;21121;-82
2021/10/18 08:55:42;;;;;;;25.77;11.93;;;;;;;12.65;100.00;100360.80;1695389;84;21078;-80
2021/10/18 08:58:11;;;;;;;26.30;10.93;;;;;;;12.42;100.00;100356.66;1620520;88;21046;-82
2021/10/18 09:00:51;;;;;;;22.60;10.40;;;;;;;12.30;100.00;100350.77;1624172;88;21031;-83
2021/10/18 09:03:31;;;;;;;21.93;10.53;;;;;;;12.26;100.00;100342.13;1623016;86;21072;-85
2021/10/18 09:06:21;;;;;;;23.83;12.23;;;;;;;12.39;100.00;100350.22;1642008;86;21081;-82
2021/10/18 09:08:56;;;;;;;24.60;12.23;;;;;;;12.47;100.00;100348.84;1642624;87;21085;-80
2021/10/18 09:11:26;;;;;;;22.48;11.53;;;;;;;12.48;100.00;100348.67;1647703;84;21517;-82
2021/10/18 09:13:57;;;;;;;26.50;11.30;;;;;;;12.48;100.00;100347.32;1635517;86;21109;-76
2021/10/18 09:16:32;;;;;;;27.27;12.03;;;;;;;12.51;100.00;100355.08;1640605;86;21167;-79
2021/10/18 09:19:05;;;;;;;21.68;10.63;;;;;;;12.86;100.00;100346.63;1602860;88;21539;-76
2021/10/18 09:21:38;;;;;;;21.12;10.65;;;;;;;13.33;100.00;100337.48;1628562;86;21146;-76
2021/10/18 09:24:05;;;;;;;25.25;11.93;;;;;;;13.74;100.00;100333.58;1632744;88;21111;-75
2021/10/18 09:26:33;;;;;;;23.07;11.78;;;;;;;13.86;100.00;100332.09;1621518;88;21095;-78
2021/10/18 09:29:15;;;;;;;22.13;11.45;;;;;;;13.71;100.00;100333.97;1631592;88;21047;-77
2021/10/18 09:31:49;;;;;;;23.80;11.73;;;;;;;13.22;100.00;100338.73;1629869;87;21214;-79
2021/10/18 09:34:18;;;;;;;20.62;11.75;;;;;;;12.68;100.00;100348.25;1607260;88;21088;-77
2021/10/18 09:36:46;;;;;;;24.40;11.97;;;;;;;12.33;100.00;100345.00;1629372;88;21094;-77
2021/10/18 09:39:17;;;;;;;22.58;11.57;;;;;;;12.13;100.00;100345.41;1629550;87;21202;-79
2021/10/18 09:42:00;;;;;;;25.60;12.55;;;;;;;11.97;100.00;100342.74;1630281;86;21134;-72
2021/10/18 09:45:02;;;;;;;27.55;15.58;;;;;;;11.86;100.00;100336.27;1629737;87;21170;-71
2021/10/18 10:59:20;;;;;;;20.57;8.90;;;;;;;13.39;99.64;100264.80;1528352;94;21140;-74
2021/10/18 11:02:09;;;;;;;19.92;8.43;;;;;;;13.55;94.70;100261.08;1531734;93;21035;-75
2021/10/18 11:04:39;;;;;;;25.35;9.23;;;;;;;13.63;94.07;100256.06;1525470;94;21192;-75
2021/10/18 11:07:13;;;;;;;17.52;9.20;;;;;;;13.73;93.25;100258.01;1526687;94;21097;-75
2021/10/18 11:09:57;;;;;;;19.80;9.93;;;;;;;13.69;88.96;100264.85;1524566;94;21098;-73
2021/10/18 11:12:34;;;;;;;21.10;9.93;;;;;;;13.41;88.65;100259.19;1519332;92;21203;-76
2021/10/18 11:15:08;;;;;;;23.67;9.80;;;;;;;13.12;90.90;100267.56;1529240;93;21538;-75
2021/10/18 11:17:41;;;;;;;24.02;12.95;;;;;;;12.82;89.77;100263.86;1538712;92;21076;-77
2021/10/18 11:20:15;;;;;;;20.80;10.82;;;;;;;12.53;94.50;100259.45;1546324;91;21019;-76
2021/10/18 11:22:49;;;;;;;21.45;10.23;;;;;;;12.45;98.01;100255.98;1562546;92;21136;-74
2021/10/18 11:25:27;;;;;;;27.82;12.93;;;;;;;12.39;100.00;100261.58;1562276;92;21278;-73
2021/10/18 11:28:02;;;;;;;23.22;12.23;;;;;;;12.35;100.00;100259.73;1563089;92;21118;-77
2021/10/18 11:30:30;;;;;;;;;;;;;;;12.38;100.00;100265.81;1565366;92;21105;-76
2021/10/18 11:33:01;;;;;;;28.62;11.78;;;;;;;12.47;100.00;100257.47;1558117;92;20132;-79
2021/10/18 11:35:34;;;;;;;23.50;11.15;;;;;;;12.59;100.00;100261.99;1520769;94;21015;-77
2021/10/18 11:38:13;;;;;;;27.32;13.70;;;;;;;12.57;100.00;100255.91;1456444;98;21090;-75
2021/10/18 11:40:48;;;;;;;24.45;11.63;;;;;;;12.42;100.00;100261.23;1454060;99;21090;-75
2021/10/18 11:43:23;;;;;;;21.02;11.90;;;;;;;12.42;100.00;100249.02;1454656;99;21125;-76
2021/10/18 11:45:52;;;;;;;25.88;12.23;;;;;;;12.54;100.00;100260.33;1502387;93;21058;-81
2021/10/18 11:48:28;;;;;;;21.07;10.95;;;;;;;12.66;100.00;100254.83;1486472;95;21097;-77
2021/10/18 11:51:00;;;;;;;26.15;11.60;;;;;;;12.61;100.00;100253.16;1524104;92;21542;-76
2021/10/18 11:53:31;;;;;;;19.50;10.00;;;;;;;12.54;100.00;100251.66;1492952;96;21077;-78
2021/10/18 11:56:00;;;;;;;25.68;11.78;;;;;;;12.43;100.00;100245.79;1485412;96;21152;-76
2021/10/18 11:58:33;;;;;;;30.27;12.60;;;;;;;12.34;100.00;100253.99;1490785;95;21077;-75
2021/10/18 12:01:04;;;;;;;22.55;12.03;;;;;;;12.20;100.00;100249.80;1487726;95;21262;-77
2021/10/18 12:03:33;;;;;;;32.08;13.10;;;;;;;12.09;100.00;100250.55;1497635;96;21108;-76
2021/10/18 12:06:07;;;;;;;21.85;12.13;;;;;;;12.02;100.00;100263.09;1497357;95;21079;-74
2021/10/18 12:08:37;;;;;;;20.45;10.53;;;;;;;11.86;100.00;100251.77;1441597;97;21200;-74
2021/10/18 12:11:08;;;;;;;21.20;10.98;;;;;;;11.76;100.00;100252.50;1381528;103;21195;-74
2021/10/18 12:13:39;;;;;;;30.20;17.20;;;;;;;11.66;100.00;100251.32;1411064;99;21173;-75
2021/10/18 12:16:19;;;;;;;22.17;9.58;;;;;;;11.61;100.00;100252.34;1446762;97;21129;-76
2021/10/18 12:18:59;;;;;;;22.07;11.03;;;;;;;11.51;100.00;100256.61;1454593;97;21213;-76
2021/10/18 12:21:28;;;;;;;26.80;11.12;;;;;;;11.44;100.00;100251.55;1464901;96;21089;-73
2021/10/18 12:24:14;;;;;;;23.85;11.28;;;;;;;11.40;100.00;100257.81;1456224;97;21193;-77
2021/10/18 12:26:48;;;;;;;20.52;11.00;;;;;;;11.31;100.00;100253.41;1465380;97;21088;-77
2021/10/18 12:29:16;;;;;;;;;;;;;;;11.26;100.00;100255.80;1462133;97;21109;-76
2021/10/18 12:31:58;;;;;;;24.07;12.73;;;;;;;11.28;100.00;100250.19;1465489;97;20120;-78
2021/10/18 12:34:28;;;;;;;34.25;20.62;;;;;;;11.27;100.00;100254.77;1474998;95;21654;-84
2021/10/18 12:37:07;;;;;;;23.83;11.57;;;;;;;11.28;100.00;100247.00;1491428;95;21132;-84